메인 페이지
METAR-TAF:

METAR-TAF

공항 :

퀘벡, 퀘벡, 캐나다

위도: 46-48N, 경도: 071-23W, 고도: 70m

현재 날씨관측

예보는 18분 전, 15:00시(UTC)에 발표되었습니다.
서남서6kt남남서풍과 풍을 오가는
온도 -11°C
습도 66%
기압 1024 hPa
시정: 48.3km
고도 3000ft 상공 구름 조금
고도 12000ft 상공 구름 조금
고도 22000ft 상공 구름 조금

METAR: CYQB 111500Z 25006KT 200V260 30SM FEW030 FEW120 FEW220 M11/M16 A3025 RMK SC1AC1CI1 SC TR AC TR SLP252

시각: 10:18 (15:18 UTC)

예보

예보는 3 시간 37분 전, 11:41시(UTC)에 발표되었습니다.
예보 대상 시간: 11일 12시부터 12일 12시까지 (UTC)
서남서6kt
시정: 10km
고도 3000ft 상공 구름 조금
고도 22000ft 상공 구름 조금
전환 중
11일 16시부터 11일 18시까지 (UTC)
남서5kt
11일 2100시부터 (UTC)
여러 방향의 바람 3kt
시정: 10km
고도 5000ft 상공 구름 많음
고도 24000ft 상공 구름 많음
12일 0000시부터 (UTC)
서남서8kt
시정: 9.7km
고도 2500ft 상공 흐림
약한눈
일시적
12일 00시부터 12일 06시까지 (UTC)
약한소낙눈
전환 중
12일 02시부터 12일 04시까지 (UTC)
서남서10kt, 순간 최대 풍속 20kt
12일 0600시부터 (UTC)
15kt, 순간 최대 풍속 25kt
시정: 10km
고도 2500ft 상공 구름 많음
일시적
12일 06시부터 12일 12시까지 (UTC)
약한소낙눈, 날린눈

TAF: CYQB 111141Z 1112/1212 25006KT P6SM FEW030 FEW220 BECMG 1116/1118 23005KT FM112100 VRB03KT P6SM BKN050 BKN240 FM120000 25008KT 6SM -SN OVC025 TEMPO 1200/1206 11/2SM -SHSN BECMG 1202/1204 25010G20KT FM120600 28015G25KT P6SM BKN025 TEMPO 1206/1212 21/2SM -SHSN BLSN RMK NXT FCST BY 111800Z

4,000개 이상의 공항 관측 자료 및 예보 (METAR 및 TAF 보고).

지도상에서 검색 가능한 기상관측소가 노란 점과 빨간 점으로 표시되어 있습니다.

기상관측소 명을 보려면 표시 위로 마우스를 이동하세요.

날씨 관측과 예보를 보려면 클릭하세요.

지도 변경 : 확대하려면 엑스 표시가 있는 녹색 버튼, 축소하려면 빼기 표시가 있는 녹색 버튼, 다음 페이지의 지도를 보려면 녹색 화살표를 클릭하세요.


METAR-TAF: